| time (UTC) | temp C | wind direction | speed KPH | gust KPH | rain 1hr cm | rain 24hr cm | rain mn cm | humidity % | barometer mb |
| 20260510220509 | 17 | 230 | 16.1 | 29.0 | 0.00 | 0.00 | 0.00 | 60 | 1017.0 |
| 20260510220409 | 17 | 230 | 16.1 | 29.0 | 0.00 | 0.00 | 0.00 | 60 | 1017.0 |
| 20260510215509 | 17 | 230 | 16.1 | 29.0 | 0.00 | 0.00 | 0.00 | 61 | 1017.0 |
| 20260510215409 | 17 | 230 | 16.1 | 29.0 | 0.00 | 0.00 | 0.00 | 61 | 1017.0 |
| 20260510214508 | 17 | 230 | 16.1 | 29.0 | 0.00 | 0.00 | 0.00 | 62 | 1017.0 |
| 20260510214408 | 17 | 230 | 16.1 | 29.0 | 0.00 | 0.00 | 0.00 | 62 | 1017.0 |
| 20260510213508 | 17 | 230 | 16.1 | 29.0 | 0.00 | 0.00 | 0.00 | 63 | 1017.0 |
| 20260510213407 | 17 | 230 | 16.1 | 29.0 | 0.00 | 0.00 | 0.00 | 63 | 1017.0 |
| 20260510212507 | 18 | 230 | 16.1 | 29.0 | 0.00 | 0.00 | 0.00 | 64 | 1017.0 |
| 20260510212407 | 18 | 230 | 16.1 | 29.0 | 0.00 | 0.00 | 0.00 | 64 | 1017.0 |
| 20260510211506 | 18 | 204 | 11.3 | 24.1 | 0.00 | 0.00 | 0.00 | 62 | 1017.0 |
| 20260510211406 | 18 | 204 | 11.3 | 24.1 | 0.00 | 0.00 | 0.00 | 62 | 1017.0 |
| 20260510210506 | 18 | 180 | 12.9 | 11.3 | 0.00 | 0.00 | 0.00 | 62 | 1017.0 |
| 20260510210406 | 18 | 180 | 12.9 | 11.3 | 0.00 | 0.00 | 0.00 | 62 | 1017.0 |
| 20260510205505 | 18 | 180 | 12.9 | 11.3 | 0.00 | 0.00 | 0.00 | 66 | 1017.0 |
| 20260510205405 | 18 | 180 | 12.9 | 11.3 | 0.00 | 0.00 | 0.00 | 66 | 1017.0 |
| 20260510204404 | 18 | 180 | 12.9 | 11.3 | 0.00 | 0.00 | 0.00 | 65 | 1017.0 |
| 20260510203504 | 18 | 180 | 12.9 | 11.3 | 0.00 | 0.00 | 0.00 | 65 | 1017.0 |
| 20260510203403 | 18 | 180 | 12.9 | 11.3 | 0.00 | 0.00 | 0.00 | 65 | 1017.0 |
| 20260510202503 | 18 | 158 | 9.7 | 8.0 | 0.00 | 0.00 | 0.00 | 67 | 1017.0 |
| 20260510202403 | 18 | 158 | 9.7 | 8.0 | 0.00 | 0.00 | 0.00 | 67 | 1017.0 |
| 20260510201502 | 18 | 225 | 6.4 | 11.3 | 0.00 | 0.00 | 0.00 | 67 | 1017.0 |
| 20260510201402 | 18 | 225 | 6.4 | 11.3 | 0.00 | 0.00 | 0.00 | 67 | 1017.0 |
| 20260510200502 | 18 | 135 | 8.0 | 17.7 | 0.00 | 0.00 | 0.00 | 66 | 1017.0 |
| 20260510200402 | 18 | 135 | 8.0 | 17.7 | 0.00 | 0.00 | 0.00 | 66 | 1017.0 |
| 20260510195501 | 18 | 180 | 8.0 | 8.0 | 0.00 | 0.00 | 0.00 | 67 | 1017.0 |
| 20260510195401 | 18 | 180 | 8.0 | 8.0 | 0.00 | 0.00 | 0.00 | 67 | 1017.0 |
| 20260510194501 | 17 | 220 | 19.3 | 0.0 | 0.00 | 0.00 | 0.00 | 69 | 1017.0 |
| 20260510194400 | 17 | 220 | 19.3 | 0.0 | 0.00 | 0.00 | 0.00 | 69 | 1017.0 |
| 20260510193500 | 18 | 68 | 11.3 | 12.9 | 0.00 | 0.00 | 0.00 | 65 | 1017.0 |
| 20260510193400 | 18 | 68 | 11.3 | 12.9 | 0.00 | 0.00 | 0.00 | 65 | 1017.0 |
| 20260510192500 | 18 | 68 | 11.3 | 12.9 | 0.00 | 0.00 | 0.00 | 65 | 1017.0 |
| 20260510192400 | 18 | 68 | 11.3 | 12.9 | 0.00 | 0.00 | 0.00 | 65 | 1017.0 |
| 20260510191459 | 18 | 165 | 8.0 | 22.5 | 0.00 | 0.00 | 0.00 | 65 | 1016.0 |
| 20260510191359 | 18 | 165 | 8.0 | 22.5 | 0.00 | 0.00 | 0.00 | 65 | 1016.0 |
| 20260510190459 | 17 | 158 | 12.9 | 12.9 | 0.00 | 0.00 | 0.00 | 67 | 1017.0 |
| 20260510190403 | 17 | 158 | 12.9 | 12.9 | 0.00 | 0.00 | 0.00 | 67 | 1017.0 |
| 20260510185458 | 17 | 203 | 11.3 | 16.1 | 0.00 | 0.00 | 0.00 | 66 | 1017.0 |
| 20260510185358 | 17 | 203 | 11.3 | 16.1 | 0.00 | 0.00 | 0.00 | 66 | 1017.0 |
| 20260510184457 | 17 | 150 | 8.0 | 0.0 | 0.00 | 0.00 | 0.00 | 66 | 1017.0 |
| 20260510184357 | 17 | 150 | 8.0 | 0.0 | 0.00 | 0.00 | 0.00 | 66 | 1017.0 |
| 20260510183356 | 17 | 135 | 8.0 | 12.9 | 0.00 | 0.00 | 0.00 | 67 | 1017.0 |
| 20260510182456 | 17 | 150 | 8.0 | 0.0 | 0.00 | 0.00 | 0.00 | 68 | 1016.0 |
| 20260510181454 | 17 | 45 | 8.0 | 11.3 | 0.00 | 0.00 | 0.00 | 68 | 1016.0 |
| 20260510181354 | 17 | 45 | 8.0 | 11.3 | 0.00 | 0.00 | 0.00 | 68 | 1016.0 |
| 20260510180453 | 17 | 110 | 12.9 | 0.0 | 0.00 | 0.00 | 0.00 | 69 | 1016.0 |
| 20260510180353 | 17 | 110 | 12.9 | 0.0 | 0.00 | 0.00 | 0.00 | 69 | 1016.0 |
| 20260510175453 | 17 | 110 | 12.9 | 0.0 | 0.00 | 0.00 | 0.00 | 70 | 1017.0 |
| 20260510175353 | 17 | 110 | 12.9 | 0.0 | 0.00 | 0.00 | 0.00 | 70 | 1017.0 |
| 20260510174451 | 17 | 110 | 12.9 | 0.0 | 0.00 | 0.00 | 0.00 | 70 | 1017.0 |
| 20260510174351 | 17 | 110 | 12.9 | 0.0 | 0.00 | 0.00 | 0.00 | 70 | 1017.0 |
| 20260510173451 | 16 | 110 | 12.9 | 0.0 | 0.00 | 0.00 | 0.00 | 72 | 1017.0 |
| 20260510173350 | 16 | 110 | 12.9 | 0.0 | 0.00 | 0.00 | 0.00 | 72 | 1017.0 |
| 20260510172450 | 16 | 110 | 12.9 | 0.0 | 0.00 | 0.00 | 0.00 | 72 | 1016.0 |
| 20260510172350 | 16 | 110 | 12.9 | 0.0 | 0.00 | 0.00 | 0.00 | 72 | 1016.0 |
| 20260510171449 | 16 | 110 | 12.9 | 0.0 | 0.00 | 0.00 | 0.00 | 72 | 1016.0 |
| 20260510171349 | 16 | 110 | 12.9 | 0.0 | 0.00 | 0.00 | 0.00 | 72 | 1016.0 |
| 20260510170449 | 15 | 110 | 17.7 | 0.0 | 0.00 | 0.00 | 0.00 | 76 | 1016.0 |
| 20260510170348 | 15 | 110 | 17.7 | 0.0 | 0.00 | 0.00 | 0.00 | 76 | 1016.0 |
| 20260510165448 | 15 | 110 | 17.7 | 0.0 | 0.00 | 0.00 | 0.00 | 77 | 1016.0 |
| 20260510165347 | 15 | 110 | 17.7 | 0.0 | 0.00 | 0.00 | 0.00 | 77 | 1016.0 |
| 20260510164447 | 15 | 110 | 17.7 | 0.0 | 0.00 | 0.00 | 0.00 | 77 | 1017.0 |
| 20260510164347 | 15 | 110 | 17.7 | 0.0 | 0.00 | 0.00 | 0.00 | 77 | 1017.0 |
| 20260510163447 | 15 | 110 | 17.7 | 0.0 | 0.00 | 0.00 | 0.00 | 79 | 1016.0 |
| 20260510163347 | 15 | 110 | 17.7 | 0.0 | 0.00 | 0.00 | 0.00 | 79 | 1016.0 |
| 20260510162446 | 15 | 203 | 8.0 | 11.3 | 0.00 | 0.00 | 0.00 | 77 | 1016.0 |
| 20260510162346 | 15 | 203 | 8.0 | 11.3 | 0.00 | 0.00 | 0.00 | 77 | 1016.0 |
| 20260510161445 | 15 | 180 | 6.4 | 8.0 | 0.00 | 0.00 | 0.00 | 78 | 1016.0 |
| 20260510161345 | 15 | 180 | 6.4 | 8.0 | 0.00 | 0.00 | 0.00 | 78 | 1016.0 |
| 20260510160445 | 15 | 113 | 8.0 | 8.0 | 0.00 | 0.00 | 0.00 | 78 | 1016.0 |
| 20260510160344 | 15 | 113 | 8.0 | 8.0 | 0.00 | 0.00 | 0.00 | 78 | 1016.0 |
| 20260510155444 | 14 | 100 | 20.9 | 0.0 | 0.00 | 0.00 | 0.00 | 79 | 1016.0 |
| 20260510155344 | 14 | 100 | 20.9 | 0.0 | 0.00 | 0.00 | 0.00 | 79 | 1016.0 |
| 20260510154442 | 13 | 100 | 20.9 | 0.0 | 0.00 | 0.00 | 0.00 | 81 | 1016.0 |
| 20260510153442 | 13 | 100 | 20.9 | 0.0 | 0.00 | 0.00 | 0.00 | 81 | 1016.0 |
| 20260510153341 | 13 | 100 | 20.9 | 0.0 | 0.00 | 0.00 | 0.00 | 81 | 1016.0 |
| 20260510152441 | 13 | 100 | 20.9 | 0.0 | 0.00 | 0.00 | 0.00 | 82 | 1016.0 |
| 20260510152341 | 13 | 100 | 20.9 | 0.0 | 0.00 | 0.00 | 0.00 | 82 | 1016.0 |
| 20260510151440 | 13 | 100 | 20.9 | 0.0 | 0.00 | 0.00 | 0.00 | 82 | 1016.0 |
| 20260510151340 | 13 | 100 | 20.9 | 0.0 | 0.00 | 0.00 | 0.00 | 82 | 1016.0 |
| 20260510150439 | 13 | 90 | 17.7 | 0.0 | 0.00 | 0.00 | 0.00 | 83 | 1016.0 |
| 20260510150339 | 13 | 90 | 17.7 | 0.0 | 0.00 | 0.00 | 0.00 | 83 | 1016.0 |
| 20260510145439 | 12 | 90 | 17.7 | 0.0 | 0.00 | 0.00 | 0.00 | 83 | 1016.0 |
| 20260510145339 | 12 | 90 | 17.7 | 0.0 | 0.00 | 0.00 | 0.00 | 83 | 1016.0 |
| 20260510144439 | 12 | 90 | 17.7 | 0.0 | 0.00 | 0.00 | 0.00 | 85 | 1016.0 |
| 20260510144339 | 12 | 90 | 17.7 | 0.0 | 0.00 | 0.00 | 0.00 | 85 | 1016.0 |
| 20260510143438 | 12 | 90 | 17.7 | 0.0 | 0.00 | 0.00 | 0.00 | 85 | 1016.0 |
| 20260510143338 | 12 | 90 | 17.7 | 0.0 | 0.00 | 0.00 | 0.00 | 85 | 1016.0 |
| 20260510142437 | 12 | 90 | 17.7 | 0.0 | 0.00 | 0.00 | 0.00 | 86 | 1015.0 |
| 20260510142337 | 12 | 90 | 17.7 | 0.0 | 0.00 | 0.00 | 0.00 | 86 | 1015.0 |
| 20260510141437 | 12 | 120 | 17.7 | 0.0 | 0.00 | 0.00 | 0.00 | 85 | 1015.0 |
| 20260510141337 | 12 | 120 | 17.7 | 0.0 | 0.00 | 0.00 | 0.00 | 85 | 1015.0 |
| 20260510140436 | 12 | 110 | 17.7 | 0.0 | 0.00 | 0.00 | 0.00 | 86 | 1016.0 |
| 20260510140336 | 12 | 110 | 17.7 | 0.0 | 0.00 | 0.00 | 0.00 | 86 | 1016.0 |
| 20260510135436 | 12 | 110 | 17.7 | 0.0 | 0.00 | 0.00 | 0.00 | 86 | 1016.0 |
| 20260510135335 | 12 | 110 | 17.7 | 0.0 | 0.00 | 0.00 | 0.00 | 86 | 1016.0 |
| 20260510134435 | 12 | 110 | 17.7 | 0.0 | 0.00 | 0.00 | 0.00 | 86 | 1016.0 |
| 20260510134335 | 12 | 110 | 17.7 | 0.0 | 0.00 | 0.00 | 0.00 | 86 | 1016.0 |
| 20260510133434 | 11 | 110 | 17.7 | 0.0 | 0.00 | 0.00 | 0.00 | 88 | 1016.0 |
| 20260510133334 | 11 | 110 | 17.7 | 0.0 | 0.00 | 0.00 | 0.00 | 88 | 1016.0 |
| 20260510132434 | 11 | 110 | 17.7 | 0.0 | 0.00 | 0.00 | 0.00 | 89 | 1015.0 |
| 20260510132334 | 11 | 110 | 17.7 | 0.0 | 0.00 | 0.00 | 0.00 | 89 | 1015.0 |
| 20260510131433 | 11 | 110 | 17.7 | 0.0 | 0.00 | 0.00 | 0.00 | 88 | 1015.0 |
| 20260510131333 | 11 | 110 | 17.7 | 0.0 | 0.00 | 0.00 | 0.00 | 88 | 1015.0 |
| 20260510130433 | 11 | 130 | 19.3 | 0.0 | 0.00 | 0.00 | 0.00 | 87 | 1015.0 |
| 20260510130332 | 11 | 130 | 19.3 | 0.0 | 0.00 | 0.00 | 0.00 | 87 | 1015.0 |
| 20260510125432 | 11 | 130 | 19.3 | 0.0 | 0.00 | 0.00 | 0.00 | 87 | 1015.0 |
| 20260510125332 | 11 | 130 | 19.3 | 0.0 | 0.00 | 0.00 | 0.00 | 87 | 1015.0 |
| 20260510124432 | 11 | 130 | 19.3 | 0.0 | 0.00 | 0.00 | 0.00 | 87 | 1016.0 |
| 20260510124331 | 11 | 130 | 19.3 | 0.0 | 0.00 | 0.00 | 0.00 | 87 | 1016.0 |
| 20260510123431 | 11 | 130 | 19.3 | 0.0 | 0.00 | 0.00 | 0.00 | 87 | 1016.0 |
| 20260510123330 | 11 | 130 | 19.3 | 0.0 | 0.00 | 0.00 | 0.00 | 87 | 1016.0 |
| 20260510122430 | 11 | 130 | 19.3 | 0.0 | 0.00 | 0.00 | 0.00 | 85 | 1015.0 |
| 20260510122330 | 11 | 130 | 19.3 | 0.0 | 0.00 | 0.00 | 0.00 | 85 | 1015.0 |
| 20260510121430 | 11 | 130 | 19.3 | 0.0 | 0.00 | 0.00 | 0.00 | 85 | 1015.0 |
| 20260510121329 | 11 | 130 | 19.3 | 0.0 | 0.00 | 0.00 | 0.00 | 85 | 1015.0 |
| 20260510120429 | 11 | 150 | 19.3 | 0.0 | 0.00 | 0.00 | 0.00 | 85 | 1016.0 |
| 20260510120329 | 11 | 150 | 19.3 | 0.0 | 0.00 | 0.00 | 0.00 | 85 | 1016.0 |
| 20260510115428 | 11 | 150 | 19.3 | 0.0 | 0.00 | 0.00 | 0.00 | 85 | 1016.0 |
| 20260510115328 | 11 | 150 | 19.3 | 0.0 | 0.00 | 0.00 | 0.00 | 85 | 1016.0 |
| 20260510114428 | 11 | 150 | 19.3 | 0.0 | 0.00 | 0.00 | 0.00 | 84 | 1016.0 |
| 20260510114327 | 11 | 150 | 19.3 | 0.0 | 0.00 | 0.00 | 0.00 | 84 | 1016.0 |
| 20260510113427 | 11 | 150 | 19.3 | 0.0 | 0.00 | 0.00 | 0.00 | 84 | 1016.0 |
| 20260510113327 | 11 | 150 | 19.3 | 0.0 | 0.00 | 0.00 | 0.00 | 84 | 1016.0 |
| 20260510112427 | 11 | 150 | 19.3 | 0.0 | 0.00 | 0.00 | 0.00 | 84 | 1015.0 |
| 20260510112327 | 11 | 150 | 19.3 | 0.0 | 0.00 | 0.00 | 0.00 | 84 | 1015.0 |
| 20260510111426 | 12 | 130 | 14.5 | 0.0 | 0.00 | 0.00 | 0.00 | 81 | 1015.0 |
| 20260510111326 | 12 | 130 | 14.5 | 0.0 | 0.00 | 0.00 | 0.00 | 81 | 1015.0 |
| 20260510110425 | 12 | 130 | 14.5 | 0.0 | 0.00 | 0.00 | 0.00 | 81 | 1015.0 |
| 20260510110325 | 12 | 130 | 14.5 | 0.0 | 0.00 | 0.00 | 0.00 | 81 | 1015.0 |
| 20260510105425 | 12 | 130 | 14.5 | 0.0 | 0.00 | 0.00 | 0.00 | 80 | 1016.0 |
| 20260510105325 | 12 | 130 | 14.5 | 0.0 | 0.00 | 0.00 | 0.00 | 80 | 1016.0 |
| 20260510104424 | 12 | 130 | 14.5 | 0.0 | 0.00 | 0.00 | 0.00 | 81 | 1016.0 |
| 20260510104324 | 12 | 130 | 14.5 | 0.0 | 0.00 | 0.00 | 0.00 | 81 | 1016.0 |
| 20260510103424 | 12 | 130 | 14.5 | 0.0 | 0.00 | 0.00 | 0.00 | 80 | 1016.0 |
| 20260510103324 | 12 | 130 | 14.5 | 0.0 | 0.00 | 0.00 | 0.00 | 80 | 1016.0 |
| 20260510102424 | 12 | 130 | 14.5 | 0.0 | 0.00 | 0.00 | 0.00 | 80 | 1015.0 |
| 20260510102324 | 12 | 130 | 14.5 | 0.0 | 0.00 | 0.00 | 0.00 | 80 | 1015.0 |
| 20260510101423 | 12 | 130 | 14.5 | 0.0 | 0.00 | 0.00 | 0.00 | 80 | 1015.0 |
| 20260510101323 | 12 | 130 | 14.5 | 0.0 | 0.00 | 0.00 | 0.00 | 80 | 1015.0 |
| 20260510100422 | 12 | 110 | 16.1 | 0.0 | 0.00 | 0.00 | 0.00 | 75 | 1016.0 |
| 20260510100322 | 12 | 110 | 16.1 | 0.0 | 0.00 | 0.00 | 0.00 | 75 | 1016.0 |
| 20260510095422 | 12 | 110 | 16.1 | 0.0 | 0.00 | 0.00 | 0.00 | 76 | 1016.0 |
| 20260510095321 | 12 | 110 | 16.1 | 0.0 | 0.00 | 0.00 | 0.00 | 76 | 1016.0 |
| 20260510094421 | 12 | 110 | 16.1 | 0.0 | 0.00 | 0.00 | 0.00 | 76 | 1016.0 |
| 20260510094321 | 12 | 110 | 16.1 | 0.0 | 0.00 | 0.00 | 0.00 | 76 | 1016.0 |
| 20260510093420 | 12 | 110 | 16.1 | 0.0 | 0.00 | 0.00 | 0.00 | 76 | 1016.0 |
| 20260510093320 | 12 | 110 | 16.1 | 0.0 | 0.00 | 0.00 | 0.00 | 76 | 1016.0 |
| 20260510092420 | 12 | 110 | 16.1 | 0.0 | 0.00 | 0.00 | 0.00 | 76 | 1015.0 |
| 20260510092320 | 12 | 110 | 16.1 | 0.0 | 0.00 | 0.00 | 0.00 | 76 | 1015.0 |
| 20260510091420 | 12 | 110 | 16.1 | 0.0 | 0.00 | 0.00 | 0.00 | 75 | 1015.0 |
| 20260510091319 | 12 | 110 | 16.1 | 0.0 | 0.00 | 0.00 | 0.00 | 75 | 1015.0 |
| 20260510090419 | 12 | 0 | 3.2 | 0.0 | 0.00 | 0.00 | 0.00 | 76 | 1015.0 |
| 20260510090318 | 12 | 0 | 3.2 | 0.0 | 0.00 | 0.00 | 0.00 | 76 | 1015.0 |
| 20260510085418 | 12 | 0 | 3.2 | 0.0 | 0.00 | 0.00 | 0.00 | 76 | 1016.0 |
| 20260510085318 | 12 | 0 | 3.2 | 0.0 | 0.00 | 0.00 | 0.00 | 76 | 1016.0 |
| 20260510084418 | 12 | 0 | 3.2 | 0.0 | 0.00 | 0.00 | 0.00 | 76 | 1016.0 |
| 20260510084317 | 12 | 0 | 3.2 | 0.0 | 0.00 | 0.00 | 0.00 | 76 | 1016.0 |
| 20260510083417 | 12 | 0 | 3.2 | 0.0 | 0.00 | 0.00 | 0.00 | 76 | 1015.0 |
| 20260510083317 | 12 | 0 | 3.2 | 0.0 | 0.00 | 0.00 | 0.00 | 76 | 1015.0 |
| 20260510082416 | 12 | 0 | 3.2 | 0.0 | 0.00 | 0.00 | 0.00 | 76 | 1015.0 |
| 20260510082316 | 12 | 0 | 3.2 | 0.0 | 0.00 | 0.00 | 0.00 | 76 | 1015.0 |
| 20260510081416 | 12 | 353 | 1.6 | 4.8 | 0.00 | 0.00 | 0.00 | 77 | 1015.0 |
| 20260510081315 | 12 | 353 | 1.6 | 4.8 | 0.00 | 0.00 | 0.00 | 77 | 1015.0 |
| 20260510080415 | 13 | 130 | 8.0 | 0.0 | 0.00 | 0.00 | 0.00 | 71 | 1015.0 |
| 20260510080315 | 13 | 130 | 8.0 | 0.0 | 0.00 | 0.00 | 0.00 | 71 | 1015.0 |
| 20260510075414 | 13 | 130 | 8.0 | 0.0 | 0.00 | 0.00 | 0.00 | 71 | 1015.0 |
| 20260510075314 | 13 | 130 | 8.0 | 0.0 | 0.00 | 0.00 | 0.00 | 71 | 1015.0 |
| 20260510074414 | 13 | 130 | 8.0 | 0.0 | 0.00 | 0.00 | 0.00 | 71 | 1015.0 |
| 20260510074314 | 13 | 130 | 8.0 | 0.0 | 0.00 | 0.00 | 0.00 | 71 | 1015.0 |
| 20260510073413 | 13 | 130 | 8.0 | 0.0 | 0.00 | 0.00 | 0.00 | 71 | 1015.0 |
| 20260510073313 | 13 | 130 | 8.0 | 0.0 | 0.00 | 0.00 | 0.00 | 71 | 1015.0 |
| 20260510072413 | 13 | 130 | 8.0 | 0.0 | 0.00 | 0.00 | 0.00 | 71 | 1015.0 |
| 20260510072313 | 13 | 130 | 8.0 | 0.0 | 0.00 | 0.00 | 0.00 | 71 | 1015.0 |
| 20260510071412 | 13 | 130 | 8.0 | 0.0 | 0.00 | 0.00 | 0.00 | 71 | 1015.0 |
| 20260510071312 | 13 | 130 | 8.0 | 0.0 | 0.00 | 0.00 | 0.00 | 71 | 1015.0 |
| 20260510070412 | 13 | 150 | 4.8 | 0.0 | 0.00 | 0.00 | 0.00 | 71 | 1015.0 |
| 20260510070311 | 13 | 150 | 4.8 | 0.0 | 0.00 | 0.00 | 0.00 | 71 | 1015.0 |
| 20260510065411 | 13 | 150 | 4.8 | 0.0 | 0.00 | 0.00 | 0.00 | 70 | 1015.0 |
| 20260510065311 | 13 | 150 | 4.8 | 0.0 | 0.00 | 0.00 | 0.00 | 70 | 1015.0 |
| 20260510064410 | 13 | 150 | 4.8 | 0.0 | 0.00 | 0.00 | 0.00 | 70 | 1015.0 |
| 20260510064310 | 13 | 150 | 4.8 | 0.0 | 0.00 | 0.00 | 0.00 | 70 | 1015.0 |
| 20260510063409 | 13 | 150 | 4.8 | 0.0 | 0.00 | 0.00 | 0.00 | 70 | 1015.0 |
| 20260510063309 | 13 | 150 | 4.8 | 0.0 | 0.00 | 0.00 | 0.00 | 70 | 1015.0 |
| 20260510062409 | 13 | 150 | 4.8 | 0.0 | 0.00 | 0.00 | 0.00 | 69 | 1015.0 |
| 20260510062309 | 13 | 150 | 4.8 | 0.0 | 0.00 | 0.00 | 0.00 | 69 | 1015.0 |
| 20260510061409 | 13 | 121 | 6.4 | 6.4 | 0.00 | 0.00 | 0.00 | 70 | 1015.0 |
| 20260510061308 | 13 | 121 | 6.4 | 6.4 | 0.00 | 0.00 | 0.00 | 70 | 1015.0 |
| 20260510060408 | 13 | 100 | 4.8 | 0.0 | 0.00 | 0.00 | 0.00 | 68 | 1015.0 |
| 20260510060308 | 13 | 100 | 4.8 | 0.0 | 0.00 | 0.00 | 0.00 | 68 | 1015.0 |
| 20260510055407 | 14 | 100 | 4.8 | 0.0 | 0.00 | 0.00 | 0.00 | 68 | 1015.0 |
| 20260510055307 | 14 | 100 | 4.8 | 0.0 | 0.00 | 0.00 | 0.00 | 68 | 1015.0 |
| 20260510054407 | 14 | 100 | 4.8 | 0.0 | 0.00 | 0.00 | 0.00 | 66 | 1016.0 |
| 20260510054306 | 14 | 100 | 4.8 | 0.0 | 0.00 | 0.00 | 0.00 | 66 | 1016.0 |
| 20260510053406 | 14 | 100 | 4.8 | 0.0 | 0.00 | 0.00 | 0.00 | 66 | 1016.0 |
| 20260510053306 | 14 | 100 | 4.8 | 0.0 | 0.00 | 0.00 | 0.00 | 66 | 1016.0 |
| 20260510052406 | 14 | 100 | 4.8 | 0.0 | 0.00 | 0.00 | 0.00 | 66 | 1015.0 |
| 20260510052306 | 14 | 100 | 4.8 | 0.0 | 0.00 | 0.00 | 0.00 | 66 | 1015.0 |
| 20260510051405 | 14 | 270 | 1.6 | 0.0 | 0.00 | 0.00 | 0.00 | 67 | 1015.0 |
| 20260510051305 | 14 | 270 | 1.6 | 0.0 | 0.00 | 0.00 | 0.00 | 67 | 1015.0 |
| 20260510050404 | 14 | 270 | 3.2 | 0.0 | 0.00 | 0.00 | 0.00 | 66 | 1016.0 |
| 20260510050304 | 14 | 270 | 3.2 | 0.0 | 0.00 | 0.00 | 0.00 | 66 | 1016.0 |
| 20260510045404 | 14 | 270 | 3.2 | 0.0 | 0.00 | 0.00 | 0.00 | 67 | 1016.0 |
| 20260510045306 | 14 | 270 | 3.2 | 0.0 | 0.00 | 0.00 | 0.00 | 67 | 1016.0 |
| 20260510044403 | 14 | 270 | 3.2 | 0.0 | 0.00 | 0.00 | 0.00 | 67 | 1016.0 |
| 20260510044303 | 14 | 270 | 3.2 | 0.0 | 0.00 | 0.00 | 0.00 | 67 | 1016.0 |
| 20260510043403 | 15 | 270 | 3.2 | 0.0 | 0.00 | 0.00 | 0.00 | 66 | 1015.0 |
| 20260510043303 | 15 | 270 | 3.2 | 0.0 | 0.00 | 0.00 | 0.00 | 66 | 1015.0 |
| 20260510042402 | 15 | 180 | 1.6 | 1.6 | 0.00 | 0.00 | 0.00 | 68 | 1015.0 |
| 20260510042305 | 15 | 180 | 1.6 | 1.6 | 0.00 | 0.00 | 0.00 | 68 | 1015.0 |
| 20260510041401 | 15 | 180 | 1.6 | 1.6 | 0.00 | 0.00 | 0.00 | 63 | 1015.0 |
| 20260510041301 | 15 | 180 | 1.6 | 1.6 | 0.00 | 0.00 | 0.00 | 63 | 1015.0 |
| 20260510040301 | 15 | 100 | 3.2 | 0.0 | 0.00 | 0.00 | 0.00 | 63 | 1015.0 |
| 20260510035400 | 15 | 100 | 3.2 | 0.0 | 0.00 | 0.00 | 0.00 | 63 | 1016.0 |
| 20260510035300 | 15 | 100 | 3.2 | 0.0 | 0.00 | 0.00 | 0.00 | 63 | 1016.0 |
| 20260510034400 | 15 | 100 | 3.2 | 0.0 | 0.00 | 0.00 | 0.00 | 63 | 1015.0 |
| 20260510034259 | 15 | 100 | 3.2 | 0.0 | 0.00 | 0.00 | 0.00 | 63 | 1015.0 |
| 20260510033359 | 15 | 100 | 3.2 | 0.0 | 0.00 | 0.00 | 0.00 | 62 | 1015.0 |
| 20260510033259 | 15 | 100 | 3.2 | 0.0 | 0.00 | 0.00 | 0.00 | 62 | 1015.0 |
| 20260510032358 | 15 | 100 | 3.2 | 0.0 | 0.00 | 0.00 | 0.00 | 63 | 1015.0 |
| 20260510032258 | 15 | 100 | 3.2 | 0.0 | 0.00 | 0.00 | 0.00 | 63 | 1015.0 |
| 20260510031358 | 15 | 270 | 6.4 | 0.0 | 0.00 | 0.00 | 0.00 | 63 | 1015.0 |
| 20260510031257 | 15 | 270 | 6.4 | 0.0 | 0.00 | 0.00 | 0.00 | 63 | 1015.0 |
| 20260510030357 | 15 | 270 | 6.4 | 0.0 | 0.00 | 0.00 | 0.00 | 62 | 1016.0 |
| 20260510030257 | 15 | 270 | 6.4 | 0.0 | 0.00 | 0.00 | 0.00 | 62 | 1016.0 |
| 20260510025357 | 16 | 270 | 6.4 | 0.0 | 0.00 | 0.00 | 0.00 | 62 | 1016.0 |
| 20260510025256 | 16 | 270 | 6.4 | 0.0 | 0.00 | 0.00 | 0.00 | 62 | 1016.0 |
| 20260510024356 | 15 | 270 | 6.4 | 0.0 | 0.00 | 0.00 | 0.00 | 62 | 1016.0 |
| 20260510024256 | 15 | 270 | 6.4 | 0.0 | 0.00 | 0.00 | 0.00 | 62 | 1016.0 |
| 20260510023355 | 15 | 270 | 6.4 | 0.0 | 0.00 | 0.00 | 0.00 | 62 | 1016.0 |
| 20260510023255 | 15 | 270 | 6.4 | 0.0 | 0.00 | 0.00 | 0.00 | 62 | 1016.0 |
| 20260510022355 | 18 | 263 | 3.2 | 1.6 | 0.00 | 0.00 | 0.00 | 60 | 1016.0 |
| 20260510022255 | 18 | 263 | 3.2 | 1.6 | 0.00 | 0.00 | 0.00 | 60 | 1016.0 |
| 20260510021354 | 17 | 260 | 6.4 | 0.0 | 0.00 | 0.00 | 0.00 | 59 | 1016.0 |
| 20260510021254 | 17 | 260 | 6.4 | 0.0 | 0.00 | 0.00 | 0.00 | 59 | 1016.0 |
| 20260510020353 | 16 | 260 | 6.4 | 0.0 | 0.00 | 0.00 | 0.00 | 59 | 1016.0 |
| 20260510020253 | 16 | 260 | 6.4 | 0.0 | 0.00 | 0.00 | 0.00 | 59 | 1016.0 |
| 20260510015353 | 16 | 260 | 6.4 | 0.0 | 0.00 | 0.00 | 0.00 | 59 | 1016.0 |
| 20260510015252 | 16 | 260 | 6.4 | 0.0 | 0.00 | 0.00 | 0.00 | 59 | 1016.0 |
| 20260510014352 | 17 | 260 | 6.4 | 0.0 | 0.00 | 0.00 | 0.00 | 61 | 1016.0 |
| 20260510014252 | 17 | 260 | 6.4 | 0.0 | 0.00 | 0.00 | 0.00 | 61 | 1016.0 |
| 20260510013352 | 17 | 260 | 6.4 | 0.0 | 0.00 | 0.00 | 0.00 | 61 | 1016.0 |
| 20260510013251 | 17 | 260 | 6.4 | 0.0 | 0.00 | 0.00 | 0.00 | 61 | 1016.0 |
| 20260510012351 | 18 | 260 | 6.4 | 0.0 | 0.00 | 0.00 | 0.00 | 58 | 1016.0 |
| 20260510012251 | 18 | 260 | 6.4 | 0.0 | 0.00 | 0.00 | 0.00 | 58 | 1016.0 |
| 20260510011350 | 18 | 260 | 6.4 | 0.0 | 0.00 | 0.00 | 0.00 | 56 | 1017.0 |
| 20260510011250 | 18 | 260 | 6.4 | 0.0 | 0.00 | 0.00 | 0.00 | 56 | 1017.0 |
| 20260510010350 | 18 | 260 | 6.4 | 0.0 | 0.00 | 0.00 | 0.00 | 53 | 1017.0 |
| 20260510010250 | 18 | 260 | 6.4 | 0.0 | 0.00 | 0.00 | 0.00 | 53 | 1017.0 |
| 20260510005349 | 18 | 260 | 6.4 | 0.0 | 0.00 | 0.00 | 0.00 | 53 | 1017.0 |
| 20260510005249 | 18 | 260 | 6.4 | 0.0 | 0.00 | 0.00 | 0.00 | 53 | 1017.0 |
| 20260510004348 | 18 | 260 | 6.4 | 0.0 | 0.00 | 0.00 | 0.00 | 55 | 1017.0 |
| 20260510004248 | 18 | 260 | 6.4 | 0.0 | 0.00 | 0.00 | 0.00 | 55 | 1017.0 |
| 20260510003348 | 18 | 260 | 6.4 | 0.0 | 0.00 | 0.00 | 0.00 | 55 | 1017.0 |
| 20260510003248 | 18 | 260 | 6.4 | 0.0 | 0.00 | 0.00 | 0.00 | 55 | 1017.0 |
| 20260510002347 | 18 | 260 | 6.4 | 0.0 | 0.00 | 0.00 | 0.00 | 54 | 1017.0 |
| 20260510002247 | 18 | 260 | 6.4 | 0.0 | 0.00 | 0.00 | 0.00 | 54 | 1017.0 |
| 20260510001347 | 18 | 260 | 6.4 | 0.0 | 0.00 | 0.00 | 0.00 | 52 | 1017.0 |
| 20260510001246 | 18 | 260 | 6.4 | 0.0 | 0.00 | 0.00 | 0.00 | 52 | 1017.0 |
| 20260510000348 | 18 | 240 | 6.4 | 0.0 | 0.00 | 0.00 | 0.00 | 51 | 1018.0 |
| 20260510000248 | 18 | 240 | 6.4 | 0.0 | 0.00 | 0.00 | 0.00 | 51 | 1018.0 |
| 20260509235346 | 18 | 240 | 6.4 | 0.0 | 0.00 | 0.00 | 0.00 | 52 | 1018.0 |
| 20260509235245 | 18 | 240 | 6.4 | 0.0 | 0.00 | 0.00 | 0.00 | 52 | 1018.0 |
| 20260509234345 | 18 | 240 | 6.4 | 0.0 | 0.00 | 0.00 | 0.00 | 51 | 1018.0 |
| 20260509234245 | 18 | 240 | 6.4 | 0.0 | 0.00 | 0.00 | 0.00 | 51 | 1018.0 |
| 20260509233344 | 18 | 240 | 6.4 | 0.0 | 0.00 | 0.00 | 0.00 | 53 | 1018.0 |
| 20260509233244 | 18 | 240 | 6.4 | 0.0 | 0.00 | 0.00 | 0.00 | 53 | 1018.0 |
| 20260509232343 | 18 | 240 | 6.4 | 0.0 | 0.00 | 0.00 | 0.00 | 53 | 1018.0 |
| 20260509232243 | 18 | 240 | 6.4 | 0.0 | 0.00 | 0.00 | 0.00 | 53 | 1018.0 |
| 20260509231343 | 19 | 238 | 3.2 | 1.6 | 0.00 | 0.00 | 0.00 | 60 | 1018.0 |
| 20260509231243 | 19 | 238 | 3.2 | 1.6 | 0.00 | 0.00 | 0.00 | 60 | 1018.0 |
| 20260509230342 | 19 | 238 | 3.2 | 1.6 | 0.00 | 0.00 | 0.00 | 60 | 1018.0 |
| 20260509230242 | 19 | 238 | 3.2 | 1.6 | 0.00 | 0.00 | 0.00 | 60 | 1018.0 |
| 20260509225342 | 19 | 238 | 3.2 | 1.6 | 0.00 | 0.00 | 0.00 | 56 | 1018.0 |
| 20260509225242 | 19 | 238 | 3.2 | 1.6 | 0.00 | 0.00 | 0.00 | 56 | 1018.0 |
| 20260509224341 | 20 | 238 | 3.2 | 1.6 | 0.00 | 0.00 | 0.00 | 54 | 1019.0 |
| 20260509224241 | 20 | 238 | 3.2 | 1.6 | 0.00 | 0.00 | 0.00 | 54 | 1019.0 |
| 20260509223341 | 19 | 256 | 3.2 | 1.6 | 0.00 | 0.00 | 0.00 | 56 | 1019.0 |
| 20260509223240 | 19 | 256 | 3.2 | 1.6 | 0.00 | 0.00 | 0.00 | 56 | 1019.0 |
| 20260509222340 | 19 | 256 | 3.2 | 1.6 | 0.00 | 0.00 | 0.00 | 55 | 1019.0 |
| 20260509222240 | 19 | 256 | 3.2 | 1.6 | 0.00 | 0.00 | 0.00 | 55 | 1019.0 |
| 20260509221340 | 19 | 256 | 3.2 | 1.6 | 0.00 | 0.00 | 0.00 | 55 | 1019.0 |
| 20260509221239 | 19 | 256 | 3.2 | 1.6 | 0.00 | 0.00 | 0.00 | 55 | 1019.0 |